Time;durP1;ratioP1;P1;durP2;ratioP2;P2;SDS_P1;SDS_P2;PMS_P1;PMS_P2;Temp;Humidity;BMP_temperature;BMP_pressure;BME280_temperature;BME280_humidity;BME280_pressure;Samples;Min_cycle;Max_cycle;Signal;HPM_P1;HPM_P2
2023/12/18 00:01:25;;;;;;;136.53;65.20;;;;;;;-143.21;83.37;75441.00;5027361;28;20644;-81
2023/12/18 00:03:52;;;;;;;134.70;65.93;;;;;;;-143.21;82.73;75446.94;5029454;28;20242;-80
2023/12/18 00:06:19;;;;;;;148.27;71.87;;;;;;;-143.21;82.79;75446.94;5022008;28;20213;-82
2023/12/18 00:08:46;;;;;;;148.07;70.97;;;;;;;-143.21;82.74;75442.97;5031195;28;20723;-81
2023/12/18 00:11:14;;;;;;;125.53;61.43;;;;;;;-143.21;82.54;75454.88;5030310;28;20302;-80
2023/12/18 00:13:41;;;;;;;143.40;71.27;;;;;;;-143.21;82.49;75458.84;5033133;28;20753;-80
2023/12/18 00:16:09;;;;;;;121.73;57.67;;;;;;;-143.21;82.49;75456.88;5027543;28;20620;-81
2023/12/18 00:18:36;;;;;;;122.87;59.33;;;;;;;-143.21;82.09;75468.78;5034214;28;20608;-79
2023/12/18 00:21:03;;;;;;;90.67;42.63;;;;;;;-143.21;82.31;75478.69;5032295;28;20220;-81
2023/12/18 00:23:30;;;;;;;94.20;46.50;;;;;;;-143.21;82.89;75474.72;5037877;28;20210;-81
2023/12/18 00:25:56;;;;;;;122.90;55.27;;;;;;;-143.21;83.16;75470.75;5037077;28;20221;-81
2023/12/18 00:28:23;;;;;;;120.97;54.17;;;;;;;-143.21;83.62;75476.72;5029322;28;20683;-80
2023/12/18 00:30:50;;;;;;;114.03;51.43;;;;;;;-143.21;83.72;75474.72;5036414;28;20579;-81
2023/12/18 00:33:18;;;;;;;116.47;50.60;;;;;;;-143.21;83.87;75470.75;5021588;28;20226;-80
2023/12/18 00:35:45;;;;;;;116.57;51.67;;;;;;;-143.21;83.98;75468.78;5032874;28;20208;-79
2023/12/18 00:38:12;;;;;;;127.77;55.17;;;;;;;-143.21;84.07;75470.75;5019330;28;20615;-78
2023/12/18 00:40:39;;;;;;;121.67;56.10;;;;;;;-143.21;84.25;75462.81;5023732;28;20686;-79
2023/12/18 00:43:05;;;;;;;119.93;54.23;;;;;;;-143.21;83.96;75454.88;5029526;28;20202;-79
2023/12/18 00:45:32;;;;;;;111.83;52.10;;;;;;;-143.21;83.57;75439.00;5029828;28;20232;-78
2023/12/18 00:47:59;;;;;;;88.83;43.43;;;;;;;-143.21;83.83;75442.97;5031987;28;20209;-79
2023/12/18 00:50:27;;;;;;;69.47;34.27;;;;;;;-143.21;83.83;75446.94;5023073;28;20226;-79
2023/12/18 00:52:54;;;;;;;54.90;27.57;;;;;;;-143.21;83.96;75452.91;5028203;28;20203;-80
2023/12/18 00:55:30;;;;;;;41.37;21.37;;;;;;;-143.21;83.60;75444.97;5023542;28;20673;-80
2023/12/18 00:57:56;;;;;;;35.80;19.50;;;;;;;-143.21;82.94;75442.97;5030498;28;20219;-79
2023/12/18 01:00:23;;;;;;;54.67;27.77;;;;;;;-143.21;82.21;75458.84;5028472;28;20206;-80
2023/12/18 01:02:51;;;;;;;61.37;29.37;;;;;;;-143.21;82.30;75464.81;5019840;28;21183;-80
2023/12/18 01:05:17;;;;;;;61.17;30.23;;;;;;;-143.21;82.36;75458.84;5035161;28;20210;-81
2023/12/18 01:07:46;;;;;;;51.53;25.77;;;;;;;-143.21;82.21;75452.91;5039712;28;20232;-80
2023/12/18 01:10:12;;;;;;;52.57;25.63;;;;;;;-143.21;82.31;75452.91;5034889;28;20217;-81
2023/12/18 01:12:39;;;;;;;43.20;19.77;;;;;;;-143.21;82.70;75456.88;5024565;28;20217;-80
2023/12/18 01:15:06;;;;;;;35.53;19.13;;;;;;;-143.21;82.76;75452.91;5030526;28;20679;-81
2023/12/18 01:17:33;;;;;;;37.23;19.73;;;;;;;-143.21;82.60;75456.88;5028306;28;20202;-81
2023/12/18 01:20:00;;;;;;;40.10;19.50;;;;;;;-143.21;82.81;75450.91;5028321;28;20227;-83
2023/12/18 01:22:27;;;;;;;39.57;21.20;;;;;;;-143.21;82.42;75439.00;5029061;28;20210;-83
2023/12/18 01:24:55;;;;;;;41.97;21.00;;;;;;;-143.21;82.37;75431.06;5029887;28;20209;-82
2023/12/18 01:27:22;;;;;;;39.27;21.70;;;;;;;-143.21;82.17;75429.06;5030666;28;20206;-83
2023/12/18 01:29:48;;;;;;;47.03;25.03;;;;;;;-143.21;81.92;75431.06;5029419;28;20199;-82
2023/12/18 01:32:15;;;;;;;44.83;22.87;;;;;;;-143.21;82.29;75429.06;5027223;28;20221;-80
2023/12/18 01:34:42;;;;;;;40.53;21.47;;;;;;;-143.21;82.54;75431.06;5025623;28;20305;-81
2023/12/18 01:37:09;;;;;;;43.10;22.87;;;;;;;-143.21;82.54;75433.03;5028897;28;20684;-80
2023/12/18 01:39:36;;;;;;;43.47;22.80;;;;;;;-143.21;82.92;75429.06;5028080;28;20233;-81
2023/12/18 01:42:05;;;;;;;43.47;21.60;;;;;;;-143.21;82.98;75421.13;5028774;28;20211;-80
2023/12/18 01:44:31;;;;;;;48.60;26.07;;;;;;;-143.21;82.51;75433.03;5020337;28;20218;-79
2023/12/18 01:46:58;;;;;;;55.20;27.13;;;;;;;-143.21;82.56;75441.00;5023281;28;20206;-80
2023/12/18 01:49:25;;;;;;;54.33;26.10;;;;;;;-143.21;82.67;75427.09;5028139;28;20210;-80
2023/12/18 01:51:53;;;;;;;48.90;25.60;;;;;;;-143.21;82.80;75427.09;5027037;28;20213;-80
2023/12/18 01:54:22;;;;;;;48.10;25.27;;;;;;;-143.21;82.61;75429.06;5027689;28;20221;-80
2023/12/18 01:56:51;;;;;;;49.97;26.83;;;;;;;-143.21;83.00;75435.03;5027559;28;20234;-80
2023/12/18 01:59:21;;;;;;;50.00;25.87;;;;;;;-143.21;83.08;75442.97;5029730;28;20226;-81
2023/12/18 02:01:48;;;;;;;50.73;26.50;;;;;;;-143.21;83.54;75439.00;5027680;28;20214;-80
2023/12/18 02:04:15;;;;;;;51.77;26.27;;;;;;;-143.21;82.94;75435.03;5027361;28;20203;-80
2023/12/18 02:06:43;;;;;;;54.63;27.47;;;;;;;-143.21;82.88;75425.09;5026981;28;20646;-80
2023/12/18 02:09:10;;;;;;;56.63;28.87;;;;;;;-143.21;82.92;75423.13;5028841;28;20203;-79
2023/12/18 02:11:37;;;;;;;52.17;26.67;;;;;;;-143.21;82.45;75415.19;5029048;28;20210;-80
2023/12/18 02:14:05;;;;;;;53.90;26.40;;;;;;;-143.21;82.52;75421.13;5036223;28;20248;-81
2023/12/18 02:16:33;;;;;;;47.33;24.93;;;;;;;-143.21;82.91;75429.06;5036738;28;20197;-81
2023/12/18 02:19:00;;;;;;;51.87;24.70;;;;;;;-143.21;83.23;75427.09;5030052;28;20230;-81
2023/12/18 02:21:27;;;;;;;46.00;23.67;;;;;;;-143.21;83.21;75421.13;5032580;28;20202;-81
2023/12/18 02:23:55;;;;;;;41.00;21.73;;;;;;;-143.21;82.84;75413.19;5036806;28;20214;-81
2023/12/18 02:26:22;;;;;;;42.27;20.43;;;;;;;-143.21;82.68;75409.22;5033974;28;20571;-81
2023/12/18 02:28:49;;;;;;;38.03;18.83;;;;;;;-143.21;82.47;75407.25;5029668;28;20199;-80
2023/12/18 02:31:18;;;;;;;35.47;18.17;;;;;;;-143.21;82.54;75405.25;5035732;28;20213;-80
2023/12/18 02:33:48;;;;;;;36.37;18.37;;;;;;;-143.21;82.60;75407.25;5030190;28;20291;-82
2023/12/18 02:36:15;;;;;;;32.70;17.17;;;;;;;-143.21;82.80;75397.31;5033260;28;20202;-80
2023/12/18 02:38:41;;;;;;;35.00;18.50;;;;;;;-143.21;82.79;75403.28;5029186;28;20225;-80
2023/12/18 02:41:09;;;;;;;37.80;19.07;;;;;;;-143.21;82.75;75409.22;5029814;28;20848;-81
2023/12/18 02:43:36;;;;;;;37.20;19.53;;;;;;;-143.21;82.93;75403.28;5034782;28;20213;-82
2023/12/18 02:46:03;;;;;;;33.27;17.13;;;;;;;-143.21;82.31;75393.34;5032474;28;20309;-81
2023/12/18 02:48:30;;;;;;;33.63;18.43;;;;;;;-143.21;82.30;75395.34;5026761;28;20207;-82
2023/12/18 02:50:57;;;;;;;47.27;22.97;;;;;;;-143.21;82.75;75405.25;5030512;28;20217;-81
2023/12/18 02:53:24;;;;;;;50.67;24.87;;;;;;;-143.21;82.54;75399.31;5035557;28;20206;-81
2023/12/18 02:55:50;;;;;;;56.80;26.53;;;;;;;-143.21;82.28;75397.31;5038502;28;20685;-81
2023/12/18 02:58:21;;;;;;;54.90;26.83;;;;;;;-143.21;82.28;75399.31;5039894;28;20207;-82
2023/12/18 03:00:48;;;;;;;57.17;29.43;;;;;;;-143.21;82.40;75405.25;5042001;28;20673;-82
2023/12/18 03:03:15;;;;;;;59.33;28.50;;;;;;;-143.21;82.31;75399.31;5040107;28;20207;-84
2023/12/18 03:05:42;;;;;;;70.77;32.20;;;;;;;-143.21;82.56;75401.28;5033526;28;20198;-82
2023/12/18 03:08:09;;;;;;;62.07;30.37;;;;;;;-143.21;82.37;75399.31;5036036;28;20209;-80
2023/12/18 03:10:36;;;;;;;75.07;34.73;;;;;;;-143.21;82.68;75411.22;5038527;28;20586;-79
2023/12/18 03:13:03;;;;;;;71.70;34.07;;;;;;;-143.21;82.91;75415.19;5042279;28;20233;-80
2023/12/18 03:15:31;;;;;;;77.40;33.97;;;;;;;-143.21;83.12;75423.13;5039572;28;20207;-81
2023/12/18 03:17:57;;;;;;;68.00;33.57;;;;;;;-143.21;82.81;75423.13;5028148;28;20216;-81
2023/12/18 03:20:24;;;;;;;72.10;33.60;;;;;;;-143.21;83.12;75425.09;5026256;28;20227;-80
2023/12/18 03:22:52;;;;;;;78.80;34.50;;;;;;;-143.21;82.92;75423.13;5031088;28;20211;-80
2023/12/18 03:25:19;;;;;;;68.90;33.77;;;;;;;-143.21;82.81;75427.09;5030207;28;20211;-80
2023/12/18 03:27:46;;;;;;;73.70;33.67;;;;;;;-143.21;82.91;75423.13;5034474;28;20775;-81
2023/12/18 03:30:13;;;;;;;70.13;34.27;;;;;;;-143.21;82.89;75413.19;5028924;28;20207;-80
2023/12/18 03:32:41;;;;;;;70.73;34.50;;;;;;;-143.21;82.54;75417.16;5028896;28;20210;-79
2023/12/18 03:35:09;;;;;;;76.00;36.50;;;;;;;-143.21;82.81;75407.25;5036486;28;20721;-79
2023/12/18 03:37:35;;;;;;;88.13;43.17;;;;;;;-143.21;82.52;75395.34;5032362;28;20701;-79
2023/12/18 03:40:02;;;;;;;75.63;38.20;;;;;;;-143.21;82.28;75391.38;5027467;28;20220;-79
2023/12/18 03:42:29;;;;;;;73.40;37.33;;;;;;;-143.21;82.16;75393.34;5028275;28;20588;-79
2023/12/18 03:44:56;;;;;;;74.43;37.67;;;;;;;-143.21;82.00;75399.31;5026407;28;20234;-79
2023/12/18 03:47:23;;;;;;;79.70;39.30;;;;;;;-143.21;82.77;75415.19;5020799;28;20205;-78
2023/12/18 03:49:51;;;;;;;74.10;39.60;;;;;;;-143.21;83.08;75417.16;5023230;28;20196;-79
2023/12/18 03:52:17;;;;;;;72.97;38.90;;;;;;;-143.21;83.48;75415.19;5026442;28;20583;-79
2023/12/18 03:54:44;;;;;;;78.87;40.23;;;;;;;-143.21;83.17;75411.22;5035257;28;20209;-79
2023/12/18 03:57:11;;;;;;;81.70;41.30;;;;;;;-143.21;82.96;75409.22;5024905;28;20219;-80
2023/12/18 03:59:38;;;;;;;85.40;42.47;;;;;;;-143.21;83.28;75401.28;5024034;28;20224;-80
2023/12/18 04:02:05;;;;;;;87.97;43.87;;;;;;;-143.21;83.15;75411.22;5032050;28;20213;-78
2023/12/18 04:04:31;;;;;;;87.10;43.50;;;;;;;-143.21;82.99;75411.22;5024802;28;20207;-80
2023/12/18 04:07:00;;;;;;;89.03;44.13;;;;;;;-143.21;83.29;75419.16;5024321;28;20214;-79
2023/12/18 04:09:26;;;;;;;93.87;47.77;;;;;;;-143.21;83.02;75407.25;5026422;28;20661;-79
2023/12/18 04:11:53;;;;;;;97.03;47.53;;;;;;;-143.21;83.07;75409.22;5033976;28;20555;-80
2023/12/18 04:14:20;;;;;;;96.53;45.20;;;;;;;-143.21;83.03;75413.19;5027854;28;20241;-79
2023/12/18 04:16:47;;;;;;;84.43;42.47;;;;;;;-143.21;82.83;75403.28;5020883;28;20202;-78
2023/12/18 04:19:13;;;;;;;78.80;40.93;;;;;;;-143.21;82.68;75411.22;5024017;28;20320;-79
2023/12/18 04:21:40;;;;;;;86.90;44.07;;;;;;;-143.21;83.05;75415.19;5020684;28;20203;-79
2023/12/18 04:24:09;;;;;;;78.57;42.10;;;;;;;-143.21;83.10;75423.13;5028980;28;20207;-80
2023/12/18 04:26:35;;;;;;;75.73;38.70;;;;;;;-143.21;83.42;75439.00;5033409;28;20650;-80
2023/12/18 04:29:02;;;;;;;83.40;40.27;;;;;;;-143.21;83.73;75441.00;5029359;28;20670;-81
2023/12/18 04:31:29;;;;;;;73.97;37.50;;;;;;;-143.21;84.01;75437.03;5019957;28;20212;-80
2023/12/18 04:33:56;;;;;;;79.60;39.33;;;;;;;-143.21;83.67;75427.09;5028022;28;20210;-81
2023/12/18 04:36:22;;;;;;;76.10;39.93;;;;;;;-143.21;83.66;75425.09;5029091;28;20206;-81
2023/12/18 04:38:49;;;;;;;89.77;42.03;;;;;;;-143.21;83.53;75423.13;5032101;28;20199;-80
2023/12/18 04:41:22;;;;;;;82.27;39.63;;;;;;;-143.21;83.28;75429.06;5029264;28;20290;-79
2023/12/18 04:43:49;;;;;;;75.50;37.23;;;;;;;-143.21;83.33;75427.09;5031867;28;20211;-81
2023/12/18 04:46:16;;;;;;;71.77;35.87;;;;;;;-143.21;83.44;75435.03;5034481;28;20213;-82
2023/12/18 04:48:43;;;;;;;71.60;34.90;;;;;;;-143.21;83.54;75433.03;5032885;28;20202;-74
2023/12/18 04:51:10;;;;;;;61.70;32.07;;;;;;;-143.21;83.82;75431.06;5024114;28;20210;-74
2023/12/18 04:53:37;;;;;;;72.87;35.77;;;;;;;-143.21;83.55;75433.03;5025997;28;20293;-74
2023/12/18 04:56:05;;;;;;;72.80;37.10;;;;;;;-143.21;83.69;75423.13;5025455;28;20628;-74
2023/12/18 04:58:34;;;;;;;69.10;35.77;;;;;;;-143.21;83.85;75431.06;5025460;28;20207;-74
2023/12/18 05:01:01;;;;;;;71.83;38.13;;;;;;;-143.21;83.91;75419.16;5023047;28;20240;-74
2023/12/18 05:03:28;;;;;;;76.17;38.30;;;;;;;-143.21;83.29;75417.16;5013111;28;20218;-74
2023/12/18 05:05:55;;;;;;;69.27;36.77;;;;;;;-143.21;83.61;75425.09;5029175;28;20280;-75
2023/12/18 05:08:22;;;;;;;73.97;36.80;;;;;;;-143.21;83.70;75419.16;5017481;28;20203;-74
2023/12/18 05:10:49;;;;;;;73.00;37.33;;;;;;;-143.21;83.78;75419.16;5022506;28;20203;-74
2023/12/18 05:13:16;;;;;;;81.40;39.70;;;;;;;-143.21;83.52;75417.16;5025350;28;20705;-75
2023/12/18 05:15:44;;;;;;;74.23;40.50;;;;;;;-143.21;83.52;75427.09;5028172;28;20305;-75
2023/12/18 05:18:11;;;;;;;92.90;46.13;;;;;;;-143.21;83.33;75425.09;5026834;28;20202;-76
2023/12/18 05:20:38;;;;;;;103.50;50.23;;;;;;;-143.21;83.37;75423.13;5024946;28;20222;-76
2023/12/18 05:23:05;;;;;;;115.53;53.43;;;;;;;-143.21;83.23;75405.25;5020708;28;20674;-76
2023/12/18 05:25:31;;;;;;;103.90;50.53;;;;;;;-143.21;83.11;75403.28;5019991;28;20199;-76
2023/12/18 05:27:58;;;;;;;113.57;51.43;;;;;;;-143.21;82.83;75409.22;5020252;28;20272;-77
2023/12/18 05:30:28;;;;;;;111.67;51.20;;;;;;;-143.21;83.05;75413.19;5024387;28;20215;-76
2023/12/18 05:32:56;;;;;;;85.50;44.67;;;;;;;-143.21;83.33;75417.16;5024405;28;20203;-75
2023/12/18 05:35:23;;;;;;;89.67;43.83;;;;;;;-143.21;83.36;75415.19;5023043;28;20209;-77
2023/12/18 05:37:49;;;;;;;106.33;50.17;;;;;;;-143.21;83.46;75425.09;5023404;28;20601;-76
2023/12/18 05:40:16;;;;;;;98.23;49.83;;;;;;;-143.21;83.88;75427.09;5022883;28;20695;-77
2023/12/18 05:42:43;;;;;;;106.20;51.80;;;;;;;-143.21;83.96;75421.13;5022577;28;20632;-78
2023/12/18 05:47:55;;;;;;;94.90;45.63;;;;;;;-143.21;84.12;75439.00;5014117;28;20210;-77
2023/12/18 05:50:22;;;;;;;95.73;45.00;;;;;;;-143.21;84.17;75435.03;5030197;28;20676;-88
2023/12/18 05:52:49;;;;;;;96.17;43.33;;;;;;;-143.21;84.18;75435.03;5028940;28;20226;-87
2023/12/18 05:55:16;;;;;;;86.80;44.30;;;;;;;-143.21;84.07;75435.03;5029246;28;20301;-75
2023/12/18 05:57:43;;;;;;;131.87;61.30;;;;;;;-143.21;84.37;75425.09;5026089;28;20206;-75
2023/12/18 06:00:14;;;;;;;200.07;95.00;;;;;;;-143.21;84.02;75427.09;5027876;28;20224;-75
2023/12/18 06:02:41;;;;;;;231.97;108.47;;;;;;;-143.21;84.04;75425.09;5026425;28;20218;-75
2023/12/18 06:05:10;;;;;;;268.27;125.10;;;;;;;-143.21;84.00;75425.09;5026284;28;20202;-74
2023/12/18 06:07:37;;;;;;;279.70;133.57;;;;;;;-143.21;84.03;75429.06;5020794;28;20225;-75
2023/12/18 06:10:04;;;;;;;254.07;124.47;;;;;;;-143.21;84.30;75425.09;5025710;28;20865;-76
2023/12/18 06:12:31;;;;;;;199.67;97.33;;;;;;;-143.21;83.97;75421.13;5027150;28;20547;-76
2023/12/18 06:14:58;;;;;;;200.93;95.60;;;;;;;-143.21;84.02;75425.09;5024372;28;20218;-76
2023/12/18 06:17:25;;;;;;;181.33;87.97;;;;;;;-143.21;84.15;75435.03;5026214;28;20214;-75
2023/12/18 06:19:52;;;;;;;150.10;72.60;;;;;;;-143.21;84.15;75423.13;5026544;28;20233;-75
2023/12/18 06:22:22;;;;;;;135.10;65.50;;;;;;;-143.21;84.12;75427.09;5027583;28;20680;-76
2023/12/18 06:24:49;;;;;;;121.20;57.50;;;;;;;-143.21;84.46;75425.09;5026463;28;20234;-76
2023/12/18 06:27:15;;;;;;;122.73;56.53;;;;;;;-143.21;84.50;75425.09;5025079;28;20245;-76
2023/12/18 06:29:43;;;;;;;131.93;61.47;;;;;;;-143.21;84.50;75421.13;5025582;28;20244;-75
2023/12/18 06:32:09;;;;;;;119.50;57.20;;;;;;;-143.21;84.84;75409.22;5026334;28;20962;-74
2023/12/18 06:34:36;;;;;;;115.10;56.83;;;;;;;-143.21;84.62;75403.28;5027507;28;20214;-75
2023/12/18 06:37:03;;;;;;;123.83;58.97;;;;;;;-143.21;84.85;75405.25;5025244;28;20210;-75
2023/12/18 06:39:31;;;;;;;126.07;59.97;;;;;;;-143.21;84.74;75385.41;5025477;28;20290;-75
2023/12/18 06:41:58;;;;;;;129.23;62.90;;;;;;;-143.21;84.33;75383.44;5024829;28;20700;-77
2023/12/18 06:44:25;;;;;;;132.47;64.00;;;;;;;-143.21;84.15;75381.44;5028280;28;21178;-76
2023/12/18 06:46:52;;;;;;;143.67;67.27;;;;;;;-143.21;84.63;75375.47;5025176;28;20249;-76
2023/12/18 06:49:18;;;;;;;137.47;66.23;;;;;;;-143.21;84.73;75373.50;5025683;28;20206;-75
2023/12/18 06:51:49;;;;;;;168.17;88.63;;;;;;;-143.21;84.75;75363.56;5024416;28;20274;-74
2023/12/18 06:54:19;;;;;;;121.57;59.43;;;;;;;-143.21;84.24;75351.66;5026144;28;20221;-76
2023/12/18 06:56:47;;;;;;;99.40;49.53;;;;;;;-143.21;84.44;75353.66;5026258;28;20591;-76
2023/12/18 06:59:15;;;;;;;78.40;40.80;;;;;;;-143.21;83.91;75341.75;5024892;28;20205;-77
2023/12/18 07:01:42;;;;;;;68.70;36.80;;;;;;;-143.21;83.81;75351.66;5024361;28;20318;-74
2023/12/18 07:04:08;;;;;;;70.00;36.13;;;;;;;-143.21;84.25;75349.69;5024805;28;20617;-75
2023/12/18 07:06:35;;;;;;;70.23;33.90;;;;;;;-143.21;84.13;75341.75;5027268;28;20204;-75
2023/12/18 07:09:02;;;;;;;60.33;29.77;;;;;;;-143.21;83.99;75345.72;5024853;28;20203;-74
2023/12/18 07:11:29;;;;;;;61.53;29.97;;;;;;;-143.21;84.36;75349.69;5025044;28;20298;-74
2023/12/18 07:13:57;;;;;;;54.60;28.27;;;;;;;-143.21;84.38;75333.81;5024766;28;20833;-74
2023/12/18 07:16:24;;;;;;;58.23;28.70;;;;;;;-143.21;84.45;75329.84;5025888;28;20214;-76
2023/12/18 07:18:51;;;;;;;50.60;25.97;;;;;;;-143.21;83.23;75311.97;5026041;28;20210;-75
2023/12/18 07:21:18;;;;;;;50.93;27.27;;;;;;;-143.21;83.05;75315.94;5025394;28;20234;-74
2023/12/18 07:23:44;;;;;;;48.57;24.50;;;;;;;-143.21;82.96;75306.00;5024539;28;20207;-75
2023/12/18 07:26:13;;;;;;;44.63;23.23;;;;;;;-143.21;82.44;75302.03;5024423;28;20847;-74
2023/12/18 07:28:40;;;;;;;54.97;27.57;;;;;;;-143.21;82.39;75309.97;5027366;28;20585;-75
2023/12/18 07:31:09;;;;;;;59.00;29.47;;;;;;;-143.21;82.60;75313.94;5023701;28;20217;-75
2023/12/18 07:33:36;;;;;;;74.33;35.70;;;;;;;-143.21;82.57;75304.03;5021422;28;20210;-76
2023/12/18 07:36:03;;;;;;;68.90;35.20;;;;;;;-143.21;82.66;75302.03;5029123;28;20303;-81
2023/12/18 07:38:30;;;;;;;70.23;37.53;;;;;;;-143.21;82.86;75288.16;5032178;28;20204;-88
2023/12/18 07:40:57;;;;;;;61.53;31.53;;;;;;;-143.21;82.78;75276.25;5033128;28;20236;-84
2023/12/18 07:43:24;;;;;;;56.27;27.90;;;;;;;-143.21;82.63;75274.25;5031360;28;20714;-86
2023/12/18 07:45:51;;;;;;;46.87;25.93;;;;;;;-143.21;82.39;75276.25;5030618;28;20623;-85
2023/12/18 07:48:21;;;;;;;52.30;27.20;;;;;;;-143.21;82.60;75274.25;5030840;28;20638;-84
2023/12/18 07:50:49;;;;;;;56.13;29.87;;;;;;;-143.21;81.83;75264.34;5027107;28;20288;-86
2023/12/18 07:53:15;;;;;;;56.57;30.53;;;;;;;-143.21;81.55;75266.31;5021274;28;20198;-83
2023/12/18 07:55:42;;;;;;;59.30;30.97;;;;;;;-143.21;81.81;75256.38;5031600;28;20212;-84
2023/12/18 07:58:09;;;;;;;54.93;32.37;;;;;;;-143.21;82.28;75254.41;5031430;28;20217;-90
2023/12/18 08:00:36;;;;;;;79.17;42.43;;;;;;;-143.21;81.88;75254.41;5032045;28;20227;-85
2023/12/18 08:03:04;;;;;;;84.60;47.57;;;;;;;-143.21;82.57;75252.41;5032309;28;20202;-83
2023/12/18 08:05:32;;;;;;;92.13;48.97;;;;;;;-143.21;82.16;75242.50;5031567;28;20195;-87
2023/12/18 08:07:59;;;;;;;96.87;51.53;;;;;;;-143.21;82.22;75236.53;5032087;28;20206;-86
2023/12/18 08:10:26;;;;;;;112.57;57.80;;;;;;;-143.21;82.44;75224.63;5032048;28;20210;-87
2023/12/18 08:12:52;;;;;;;133.23;73.50;;;;;;;-143.21;82.42;75216.69;5034523;28;20675;-84
2023/12/18 08:15:19;;;;;;;181.37;96.33;;;;;;;-143.21;82.34;75206.78;5033372;28;20211;-88
2023/12/18 08:17:46;;;;;;;174.67;93.60;;;;;;;-143.21;82.43;75192.88;5039338;28;20219;-86
2023/12/18 08:20:15;;;;;;;129.67;69.87;;;;;;;-143.21;82.60;75177.00;5035237;28;20226;-86
2023/12/18 08:22:44;;;;;;;99.77;52.03;;;;;;;-143.21;82.36;75177.00;5041222;28;20202;-84
2023/12/18 08:25:11;;;;;;;60.47;35.23;;;;;;;-143.21;82.75;75173.03;5040076;28;20290;-83
2023/12/18 08:27:38;;;;;;;65.90;32.43;;;;;;;-143.21;82.59;75169.06;5033027;28;20702;-85
2023/12/18 08:30:06;;;;;;;60.30;31.83;;;;;;;-143.21;82.19;75157.16;5037424;28;20205;-85
2023/12/18 08:32:33;;;;;;;64.27;32.60;;;;;;;-143.21;81.63;75143.25;5043810;28;20201;-81
2023/12/18 08:35:01;;;;;;;70.53;36.37;;;;;;;-143.21;81.39;75133.34;5045688;28;20267;-83
2023/12/18 08:37:27;;;;;;;69.27;36.50;;;;;;;-143.21;80.71;75125.38;5041871;28;20276;-87
2023/12/18 08:39:56;;;;;;;65.33;35.30;;;;;;;-143.21;80.21;75111.50;5043197;28;20230;-85
2023/12/18 08:42:23;;;;;;;85.83;42.60;;;;;;;-143.21;80.02;75101.56;5040289;28;20212;-83
2023/12/18 08:44:50;;;;;;;90.23;46.07;;;;;;;-143.21;79.71;75103.56;5042603;28;20292;-81
2023/12/18 08:47:17;;;;;;;94.07;46.73;;;;;;;-143.21;80.02;75093.63;5041084;28;20208;-84
2023/12/18 08:49:44;;;;;;;86.10;43.97;;;;;;;-143.21;79.95;75095.63;5040706;28;20209;-83
2023/12/18 08:52:11;;;;;;;83.93;42.47;;;;;;;-143.21;79.71;75083.72;5036002;28;20230;-83
2023/12/18 08:54:38;;;;;;;83.67;43.40;;;;;;;-143.21;79.92;75099.59;5032777;28;20220;-84
2023/12/18 08:57:06;;;;;;;78.87;39.90;;;;;;;-143.21;79.57;75121.44;5033179;28;20201;-83
2023/12/18 08:59:34;;;;;;;77.97;39.50;;;;;;;-143.21;80.09;75115.47;5032860;28;20202;-84
2023/12/18 09:02:00;;;;;;;73.17;37.77;;;;;;;-143.21;80.39;75095.63;5032812;28;20317;-82
2023/12/18 09:04:27;;;;;;;74.80;38.87;;;;;;;-143.21;79.53;75073.78;5032844;28;20198;-83
2023/12/18 09:06:54;;;;;;;75.03;36.87;;;;;;;-143.21;79.32;75071.81;5033154;28;20197;-82
2023/12/18 09:09:21;;;;;;;70.20;36.07;;;;;;;-143.21;79.25;75055.94;5032755;28;20197;-82
2023/12/18 09:11:48;;;;;;;67.57;34.20;;;;;;;-143.21;79.16;75044.03;5024689;28;20972;-83
2023/12/18 09:14:17;;;;;;;69.93;33.53;;;;;;;-143.21;79.29;75038.06;5013588;28;20261;-82
2023/12/18 09:16:44;;;;;;;63.77;31.43;;;;;;;-143.21;79.26;75022.19;5029673;28;20191;-82
2023/12/18 09:19:11;;;;;;;59.90;31.90;;;;;;;-143.21;79.54;75012.25;5032634;28;20198;-83
2023/12/18 09:21:38;;;;;;;56.93;30.60;;;;;;;-143.21;79.58;75002.34;5032170;28;20729;-83
2023/12/18 09:24:06;;;;;;;55.80;30.03;;;;;;;-143.21;79.61;74986.47;5032317;28;20290;-82
2023/12/18 09:26:32;;;;;;;58.23;28.03;;;;;;;-143.21;79.02;74974.56;5031970;28;20560;-83
2023/12/18 09:28:59;;;;;;;53.17;27.73;;;;;;;-143.21;78.78;74950.75;5032859;28;20712;-81
2023/12/18 09:31:34;;;;;;;54.03;28.83;;;;;;;-143.21;78.69;74948.75;5033313;28;20191;-83
2023/12/18 09:34:02;;;;;;;47.53;26.10;;;;;;;-143.21;78.48;74936.84;5033013;28;20194;-83
2023/12/18 09:36:28;;;;;;;45.77;23.47;;;;;;;-143.21;78.47;74930.88;5033006;28;20203;-83
2023/12/18 09:38:55;;;;;;;41.97;23.47;;;;;;;-143.21;78.27;74918.97;5033109;28;20214;-83
2023/12/18 09:41:23;;;;;;;47.57;25.83;;;;;;;-143.21;78.01;74903.09;5032816;28;20241;-82
2023/12/18 09:43:52;;;;;;;46.83;26.17;;;;;;;-143.21;77.99;74901.13;5032776;28;20195;-82
2023/12/18 09:46:22;;;;;;;48.23;25.67;;;;;;;-143.21;77.99;74895.16;5032926;28;20234;-81
2023/12/18 09:48:50;;;;;;;54.07;28.27;;;;;;;-143.21;77.71;74877.31;5032568;28;20183;-82
2023/12/18 09:51:20;;;;;;;53.60;30.53;;;;;;;-143.21;77.19;74839.59;5024620;28;20550;-77
2023/12/18 09:53:48;;;;;;;56.00;30.63;;;;;;;-143.21;75.97;74762.19;5029414;28;20202;-82
2023/12/18 09:56:17;;;;;;;51.83;28.40;;;;;;;-143.21;73.13;74597.47;5026489;28;20210;-82
2023/12/18 09:58:46;;;;;;;53.03;28.33;;;;;;;-143.21;69.32;74393.09;5048741;28;20202;-81
2023/12/18 10:01:13;;;;;;;54.57;29.93;;;;;;;-143.21;64.67;74131.16;5051689;28;20603;-83
2023/12/18 10:03:40;;;;;;;55.40;31.67;;;;;;;-143.21;59.19;73904.97;5051084;28;20190;-80
2023/12/18 10:06:09;;;;;;;55.33;29.67;;;;;;;-143.21;54.12;73710.53;5051259;28;20204;-80
2023/12/18 10:08:36;;;;;;;43.13;24.33;;;;;;;-143.21;49.81;73561.75;5050887;28;20221;-79
2023/12/18 10:11:04;;;;;;;28.90;17.53;;;;;;;-143.21;48.13;73446.69;5051233;28;20190;-79
2023/12/18 10:13:30;;;;;;;25.20;14.43;;;;;;;-143.21;45.17;73391.13;5051207;28;20257;-79
2023/12/18 10:15:58;;;;;;;24.13;15.30;;;;;;;-143.21;45.00;73389.16;5031383;28;20230;-79
2023/12/18 10:18:28;;;;;;;24.83;16.03;;;;;;;-143.21;43.06;73325.69;5030968;28;20198;-78
2023/12/18 10:20:55;;;;;;;26.53;15.07;;;;;;;-143.21;42.97;73315.75;5030797;28;20230;-80
2023/12/18 10:23:24;;;;;;;27.37;17.00;;;;;;;-143.21;41.78;73210.63;5031286;28;20198;-79
2023/12/18 10:25:51;;;;;;;25.33;16.33;;;;;;;-143.21;39.73;73097.56;5030813;28;20202;-79
2023/12/18 10:28:18;;;;;;;25.83;16.37;;;;;;;-143.21;38.02;73018.22;5030886;28;20199;-80
2023/12/18 10:30:46;;;;;;;30.67;17.27;;;;;;;-143.21;35.61;72923.00;5031259;28;20198;-78
2023/12/18 10:33:14;;;;;;;30.47;18.23;;;;;;;-143.21;33.27;72811.94;5030354;28;20210;-79
2023/12/18 10:35:41;;;;;;;32.63;20.77;;;;;;;-143.21;32.09;72764.31;5030847;28;20286;-79
2023/12/18 10:38:10;;;;;;;34.60;21.27;;;;;;;-143.21;31.73;72756.38;5032044;28;20221;-79
2023/12/18 10:40:38;;;;;;;37.33;22.17;;;;;;;-143.21;31.06;72714.72;5030901;28;20278;-81
2023/12/18 10:43:19;;;;;;;31.63;20.43;;;;;;;-143.21;30.38;72663.16;5031958;28;20203;-81
2023/12/18 10:45:47;;;;;;;31.87;21.60;;;;;;;-143.21;30.02;72649.28;5025528;28;20226;-81
2023/12/18 10:48:16;;;;;;;33.65;20.65;;;;;;;-143.21;29.64;72607.63;5031740;28;20222;-81
2023/12/18 10:50:45;;;;;;;39.65;20.88;;;;;;;-143.21;29.45;72593.75;5031446;28;20203;-80
2023/12/18 10:53:14;;;;;;;36.95;21.67;;;;;;;-143.21;29.49;72677.06;5031408;28;20199;-81
2023/12/18 10:55:42;;;;;;;34.45;21.33;;;;;;;-143.21;31.08;72827.78;5030832;28;20207;-80
2023/12/18 10:58:11;;;;;;;30.97;20.37;;;;;;;-143.21;31.73;72843.66;5024395;28;21681;-78
2023/12/18 11:00:39;;;;;;;39.33;23.93;;;;;;;-143.21;31.49;72869.44;5029800;28;20222;-80
2023/12/18 11:03:07;;;;;;;38.20;23.17;;;;;;;-143.21;32.17;72913.09;5030590;28;20199;-79